OXFK1: Arkansas Rvr at Oxford

Data processed at Fri Jan 05 2018 23:53


All information presented herein is the property of the government of the United States of America and may be revised or deleted at any time without prior notice.
Dissemination of this information without the expressed written consent of the Public Affairs Office, Tulsa District U.S. Army Corps of Engineers is strictly prohibited.
These data are gathered electronically and, as presented, have not undergone any form of quality control. These data are not guaranteed to be valid or correct.
Go to home page.
Go to station list.

Upstream stations:

Downstream station:
Previous Day
Next Day
Current Day
    
SHEF ID:       OXFK1     ARKANSAS RIVER AT OXFORD
STATION TYPE:  

                STAGE  RIV-FLOW  BAT-LOAD
                   ft       cfs      volt
              Ccp-Rev   Ccp-Rev   Ccp-Rev
(US/Central)
01/03 00:00      8.32       828     12.71
01/03 01:00      8.30       810     12.71
01/03 02:00      8.33       836     12.71
01/03 03:00      8.33       836     12.65
01/03 04:00      8.33       836     12.65
01/03 05:00      8.36       862     12.65
01/03 06:00      8.31       819     12.60
01/03 07:00      8.31       819     12.60
01/03 08:00      8.38       880     12.54
01/03 09:00      8.27       785     13.94
01/03 10:00      8.33       836     14.00
01/03 11:00      8.35       854     14.00
01/03 12:00      8.38       880     14.41
01/03 13:00      8.40       898     14.71
01/03 14:00      8.41       907     14.30
01/03 15:00      8.46       952     13.42
01/03 16:00      8.44       934     13.65
01/03 17:00      8.43       925     13.30
01/03 18:00      8.38       880     13.00
01/03 19:00      8.34       845     12.95
01/03 20:00      8.33       836     12.89
01/03 21:00      8.32       828     12.89
01/03 22:00      8.32       828     12.83
01/03 23:00      8.32       828     12.83